Last 24 Hours

Coyote Canyon

10 Minute Data | America/Los_Angeles
as of 5/8/26 10:47 AM PDT
Date & Time Temp (°F) Dew Pt (°F) RH (%) Wind Spd (mph) Wind Dir (°) Wind Gust (mph) Wind Gst Dir (°) Daily Max Temp (°F) Daily Min Temp (°F)
5/8/26 - 1040 77.1 35.7 22 17.0 W | 274 24.6 W | 270 77.5 60.8
5/8/26 - 1030 77.0 34.9 22 16.8 W | 276 29.2 WSW | 252 77.5 60.8
5/8/26 - 1020 76.4 34.9 22 18.9 W | 281 26.4 W | 278 77.5 60.8
5/8/26 - 1010 76.8 35.1 22 17.0 W | 280 24.3 W | 277 77.5 60.8
5/8/26 - 1000 76.2 35.0 22 17.3 W | 278 25.3 W | 278 76.8 60.8
5/8/26 - 0950 75.8 34.2 22 17.5 WNW | 287 27.8 WNW | 285 76.8 60.8
5/8/26 - 0940 76.0 33.4 21 17.9 WNW | 282 28.4 WNW | 287 76.8 60.8
5/8/26 - 0930 75.5 31.1 20 20.4 WNW | 299 28.4 WNW | 293 76.0 60.8
5/8/26 - 0920 75.0 31.9 21 20.5 WNW | 295 29.3 WNW | 286 75.8 60.8
5/8/26 - 0910 74.2 33.9 23 19.7 WNW | 292 27.7 WNW | 282 74.7 60.8
5/8/26 - 0900 73.6 35.1 24 19.4 WNW | 293 26.8 WNW | 287 74.1 60.8
5/8/26 - 0850 72.8 38.0 28 17.4 WNW | 294 26.1 WNW | 284 73.4 60.8
5/8/26 - 0840 71.6 39.1 31 17.1 WNW | 296 22.2 WNW | 294 72.5 60.8
5/8/26 - 0830 70.8 40.1 33 15.8 WNW | 295 22.2 WNW | 295 71.0 60.8
5/8/26 - 0820 69.7 40.0 34 17.2 WNW | 298 22.6 WNW | 293 70.1 60.8
5/8/26 - 0810 68.9 40.8 36 17.4 WNW | 298 22.6 NW | 304 69.4 60.8
5/8/26 - 0800 68.3 41.3 37 16.8 WNW | 300 22.6 WNW | 297 68.6 60.8
5/8/26 - 0750 67.6 41.3 38 17.8 WNW | 303 23.7 WNW | 296 67.9 60.8
5/8/26 - 0740 66.9 41.7 40 18.2 NW | 304 24.4 WNW | 299 67.3 60.8
5/8/26 - 0730 66.4 42.0 41 17.9 NW | 304 22.8 WNW | 301 66.6 60.8
5/8/26 - 0720 65.9 42.1 42 19.8 NW | 304 24.1 WNW | 295 66.2 60.8
5/8/26 - 0710 65.2 42.4 43 18.2 WNW | 300 25.1 WNW | 302 65.6 60.8
5/8/26 - 0700 64.3 42.4 45 18.2 WNW | 300 23.0 WNW | 297 64.8 60.8
5/8/26 - 0650 63.8 42.2 45 18.7 WNW | 300 24.6 WNW | 297 64.0 60.8
5/8/26 - 0640 62.9 42.0 46 19.6 WNW | 303 23.2 WNW | 297 63.5 60.8
5/8/26 - 0630 62.6 42.0 47 19.2 NW | 304 22.9 WNW | 302 63.5 60.8
5/8/26 - 0620 62.3 42.0 47 18.9 NW | 304 22.7 NW | 305 63.5 60.8
5/8/26 - 0610 62.4 42.1 47 18.4 NW | 304 22.3 WNW | 302 63.5 60.8
5/8/26 - 0600 61.6 42.2 49 17.4 NW | 304 21.6 NW | 306 63.5 60.8
5/8/26 - 0550 61.4 42.3 49 16.5 WNW | 301 20.2 WNW | 297 63.5 60.8
5/8/26 - 0540 61.8 42.1 48 16.3 WNW | 299 20.8 WNW | 302 63.5 60.8
5/8/26 - 0530 62.2 42.2 48 16.6 WNW | 301 20.4 WNW | 296 63.5 60.8
5/8/26 - 0520 63.0 42.4 47 17.5 WNW | 303 21.4 WNW | 300 63.5 60.8
5/8/26 - 0510 63.1 42.7 47 18.5 NW | 308 22.6 NW | 306 63.5 60.8
5/8/26 - 0500 62.8 42.9 48 19.0 NW | 309 23.0 NW | 305 63.5 60.8
5/8/26 - 0450 62.4 42.9 49 19.7 NW | 306 23.0 NW | 308 63.5 60.8
5/8/26 - 0440 62.4 43.0 49 19.2 NW | 305 22.2 WNW | 297 63.5 60.8
5/8/26 - 0430 62.5 43.0 49 19.5 NW | 305 23.8 WNW | 296 63.5 60.8
5/8/26 - 0420 62.1 42.8 49 19.2 NW | 304 22.8 WNW | 303 63.5 60.8
5/8/26 - 0410 62.3 42.7 49 18.1 WNW | 303 22.2 NW | 307 63.5 60.8
5/8/26 - 0400 62.7 42.4 47 19.7 NW | 306 23.3 NW | 306 63.5 60.8
5/8/26 - 0350 62.8 42.3 47 19.9 NW | 304 22.9 NW | 308 63.5 60.8
5/8/26 - 0340 62.9 41.8 46 19.9 NW | 304 24.6 NW | 312 63.5 60.8
5/8/26 - 0330 62.8 41.8 46 20.6 NW | 305 23.6 WNW | 301 63.5 60.8
5/8/26 - 0320 62.9 42.0 46 20.3 WNW | 302 24.6 WNW | 300 63.5 60.8
5/8/26 - 0310 63.0 41.9 46 20.1 WNW | 301 24.5 WNW | 301 63.5 60.8
5/8/26 - 0300 61.6 41.8 48 17.9 WNW | 298 22.8 WNW | 303 63.2 60.8
5/8/26 - 0250 61.4 42.0 49 18.0 WNW | 297 23.2 WNW | 298 63.2 60.8
5/8/26 - 0240 61.3 42.4 50 17.3 WNW | 296 21.3 WNW | 290 63.2 60.8
5/8/26 - 0230 61.0 42.4 50 17.5 WNW | 297 22.0 WNW | 300 63.2 60.8
5/8/26 - 0220 61.2 42.0 49 17.9 WNW | 295 22.7 WNW | 294 63.2 61.1
5/8/26 - 0210 61.8 42.1 48 16.4 WNW | 297 21.3 WNW | 301 63.2 61.1
5/8/26 - 0200 62.7 42.6 48 18.0 WNW | 299 23.2 WNW | 297 63.2 61.6
5/8/26 - 0150 62.9 42.9 48 19.9 WNW | 302 24.1 WNW | 298 63.2 61.6
5/8/26 - 0140 62.4 42.6 48 18.9 WNW | 300 23.8 WNW | 294 62.9 61.6
5/8/26 - 0130 61.8 42.3 49 16.3 WNW | 299 20.5 WNW | 300 62.4 61.6
5/8/26 - 0120 62.1 42.6 49 16.2 WNW | 300 22.4 WNW | 297 62.4 61.6
5/8/26 - 0110 62.1 44.2 52 18.6 WNW | 301 24.2 WNW | 297 62.4 61.6
5/8/26 - 0100 61.6 44.8 54 17.3 WNW | 296 23.0 WNW | 300 81.3 53.7
5/8/26 - 0050 62.0 43.7 51 16.5 WNW | 295 21.5 WNW | 294 81.3 53.7
5/8/26 - 0040 61.8 45.6 55 17.8 WNW | 301 22.8 WNW | 301 81.3 53.7
5/8/26 - 0030 61.7 45.8 56 16.5 WNW | 298 21.6 NW | 304 81.3 53.7
5/8/26 - 0020 61.9 45.4 55 17.5 WNW | 298 22.1 WNW | 296 81.3 53.7
5/8/26 - 0010 61.8 45.5 55 16.6 WNW | 292 20.0 WNW | 291 81.3 53.7
5/8/26 - 0000 62.4 45.3 53 15.3 WNW | 298 21.0 WNW | 296 81.3 53.7
5/7/26 - 2350 62.6 45.2 53 17.7 WNW | 302 22.0 NW | 304 81.3 53.7
5/7/26 - 2340 62.8 45.0 52 17.4 WNW | 301 22.4 NW | 304 81.3 53.7
5/7/26 - 2330 62.7 44.8 52 17.6 WNW | 302 23.2 WNW | 296 81.3 53.7
5/7/26 - 2320 62.6 44.6 52 15.8 WNW | 300 20.8 WNW | 294 81.3 53.7
5/7/26 - 2310 62.8 44.4 51 16.0 WNW | 299 21.0 WNW | 298 81.3 53.7
5/7/26 - 2300 63.1 43.6 49 17.2 WNW | 302 24.1 WNW | 294 81.3 53.7
5/7/26 - 2250 63.3 42.4 46 18.6 WNW | 302 24.0 WNW | 290 81.3 53.7
5/7/26 - 2240 63.0 41.9 46 18.4 WNW | 302 23.7 WNW | 298 81.3 53.7
5/7/26 - 2230 62.8 43.0 48 17.5 WNW | 302 22.9 WNW | 294 81.3 53.7
5/7/26 - 2220 63.1 43.8 49 19.1 WNW | 302 24.8 WNW | 301 81.3 53.7
5/7/26 - 2210 63.4 44.1 49 19.0 WNW | 301 24.5 WNW | 296 81.3 53.7
5/7/26 - 2200 62.9 46.1 54 18.6 WNW | 300 25.1 NW | 306 81.3 53.7
5/7/26 - 2150 63.0 47.3 56 21.2 NW | 304 26.7 WNW | 297 81.3 53.7
5/7/26 - 2140 63.0 47.4 57 21.9 NW | 305 28.0 WNW | 294 81.3 53.7
5/7/26 - 2130 62.9 46.5 55 18.2 NW | 306 25.0 WNW | 299 81.3 53.7
5/7/26 - 2120 63.1 45.0 51 16.4 WNW | 302 21.9 WNW | 295 81.3 53.7
5/7/26 - 2110 63.7 44.8 50 16.0 NW | 304 21.4 WNW | 300 81.3 53.7
5/7/26 - 2100 64.5 45.1 49 18.5 NW | 304 25.1 WNW | 302 81.3 53.7
5/7/26 - 2050 64.5 45.4 50 16.9 NW | 306 23.8 NW | 308 81.3 53.7
5/7/26 - 2040 65.1 44.9 48 18.1 WNW | 299 22.9 WNW | 296 81.3 53.7
5/7/26 - 2030 66.0 44.7 46 17.1 WNW | 294 25.4 WNW | 290 81.3 53.7
5/7/26 - 2020 66.9 44.7 45 17.8 WNW | 299 24.0 WNW | 295 81.3 53.7
5/7/26 - 2010 67.1 45.0 45 18.7 WNW | 293 28.2 W | 278 81.3 53.7
5/7/26 - 2000 67.9 44.8 43 19.1 WNW | 288 27.1 WNW | 288 81.3 53.7
5/7/26 - 1950 68.3 45.9 45 19.2 WNW | 296 26.3 W | 281 81.3 53.7
5/7/26 - 1940 69.2 45.3 42 21.2 WNW | 301 29.8 WNW | 291 81.3 53.7
5/7/26 - 1930 69.8 44.8 40 23.9 WNW | 298 31.3 WNW | 295 81.3 53.7
5/7/26 - 1920 70.3 43.9 38 24.0 WNW | 291 31.6 WNW | 288 81.3 53.7
5/7/26 - 1910 70.8 44.3 38 25.4 WNW | 288 32.4 WNW | 298 81.3 53.7
5/7/26 - 1900 71.3 45.8 40 25.0 WNW | 292 34.1 WNW | 296 81.3 53.7
5/7/26 - 1850 71.7 47.0 41 25.7 WNW | 290 33.0 WNW | 292 81.3 53.7
5/7/26 - 1840 72.1 47.1 41 25.5 WNW | 292 34.3 WNW | 286 81.3 53.7
5/7/26 - 1830 72.4 48.1 42 27.5 WNW | 291 35.4 WNW | 296 81.3 53.7
5/7/26 - 1820 72.7 49.9 45 24.4 W | 277 34.6 W | 272 81.3 53.7
5/7/26 - 1810 73.1 49.6 43 23.5 W | 281 33.7 W | 280 81.3 53.7
5/7/26 - 1800 73.8 49.4 42 24.4 WNW | 283 34.8 W | 270 81.3 53.7
5/7/26 - 1750 74.0 49.6 42 25.0 W | 274 36.3 W | 261 81.3 53.7
5/7/26 - 1740 74.3 50.9 44 24.6 W | 270 33.5 W | 270 81.3 53.7
5/7/26 - 1730 75.0 48.9 40 23.3 W | 278 32.2 W | 267 81.3 53.7
5/7/26 - 1720 75.6 44.1 33 23.6 W | 278 35.7 W | 259 81.3 53.7
5/7/26 - 1710 75.5 45.2 34 24.2 W | 279 34.3 W | 278 81.3 53.7
5/7/26 - 1700 76.2 45.1 33 24.1 W | 273 32.2 W | 270 81.3 53.7
5/7/26 - 1650 76.5 44.1 32 23.2 W | 276 31.4 W | 268 81.3 53.7
5/7/26 - 1640 76.9 44.4 31 22.4 WNW | 282 32.3 WNW | 284 81.3 53.7
5/7/26 - 1630 76.9 42.7 30 22.4 W | 271 33.2 W | 264 81.3 53.7
5/7/26 - 1620 77.2 42.1 29 22.5 W | 271 31.6 W | 278 81.3 53.7
5/7/26 - 1610 77.9 42.1 28 19.3 W | 275 30.0 W | 270 81.3 53.7
5/7/26 - 1600 77.8 42.1 28 18.5 W | 270 29.2 WSW | 255 81.3 53.7
5/7/26 - 1550 77.9 42.3 28 20.0 W | 268 30.8 WSW | 258 81.3 53.7
5/7/26 - 1540 78.0 42.2 28 17.6 W | 271 29.2 W | 271 81.3 53.7
5/7/26 - 1530 77.9 41.4 27 20.1 WSW | 252 30.2 WSW | 245 81.3 53.7
5/7/26 - 1520 78.3 41.1 27 15.7 WSW | 252 25.6 SW | 221 81.3 53.7
5/7/26 - 1510 77.8 39.9 26 13.6 W | 266 27.2 W | 278 81.3 53.7
5/7/26 - 1500 77.5 40.6 27 14.9 WNW | 282 30.0 WNW | 293 81.3 53.7
5/7/26 - 1450 77.6 40.2 26 17.0 W | 281 29.2 WNW | 283 81.3 53.7
5/7/26 - 1440 77.4 41.0 27 17.7 W | 280 27.9 WNW | 282 81.3 53.7
5/7/26 - 1430 77.7 41.4 27 16.5 WNW | 287 25.8 WNW | 293 81.3 53.7
5/7/26 - 1420 77.6 40.9 27 16.1 W | 261 26.3 WSW | 250 81.3 53.7
5/7/26 - 1410 78.8 41.2 26 15.9 W | 262 25.4 WSW | 256 81.3 53.7
5/7/26 - 1400 78.6 40.8 26 14.8 WSW | 256 26.2 SW | 234 81.3 53.7
5/7/26 - 1350 78.0 40.6 26 16.5 W | 266 23.3 W | 264 81.3 53.7
5/7/26 - 1340 77.5 41.6 28 15.7 W | 266 22.8 W | 266 81.3 53.7
5/7/26 - 1330 78.6 38.2 24 12.0 NW | 314 21.2 NW | 313 81.3 53.7
5/7/26 - 1320 79.4 26.1 14 7.9 NNW | 337 18.4 N | 0 81.3 53.7
5/7/26 - 1310 78.5 26.2 14 8.1 N | 3 16.6 NNE | 12 81.3 53.7
5/7/26 - 1300 77.9 26.6 15 10.8 N | 9 18.2 NNE | 15 81.3 53.7
5/7/26 - 1250 78.5 27.7 15 9.7 NE | 53 21.1 NE | 51 81.3 53.7
5/7/26 - 1240 78.2 26.7 15 12.5 NNE | 22 21.7 NE | 46 81.3 53.7
5/7/26 - 1230 78.3 26.5 15 7.8 NNE | 16 16.1 NNW | 331 81.3 53.7
5/7/26 - 1220 79.7 28.4 15 8.5 NE | 47 18.4 NNE | 31 81.3 53.7
5/7/26 - 1210 78.5 28.6 16 8.9 ENE | 69 20.4 NE | 55 79.9 53.7
5/7/26 - 1200 78.0 27.8 16 9.5 ENE | 62 16.6 NNE | 13 79.9 53.7
5/7/26 - 1150 77.9 27.8 16 13.3 ENE | 59 23.1 ENE | 78 79.9 53.7
5/7/26 - 1140 78.7 29.6 17 5.3 E | 97 18.9 E | 100 79.9 53.7
5/7/26 - 1130 77.1 24.4 14 11.6 N | 8 21.0 NE | 37 78.0 53.7
5/7/26 - 1120 76.4 23.5 14 13.6 N | 8 21.7 NNE | 18 77.6 53.7
5/7/26 - 1110 76.5 24.8 15 11.2 NE | 43 21.4 NE | 39 77.6 53.7
5/7/26 - 1100 76.6 26.3 16 13.3 NE | 43 21.0 NE | 39 77.6 53.7
5/7/26 - 1050 76.4 27.5 16 11.3 NNE | 26 20.8 NNE | 16 77.6 53.7
5/7/26 - 1040 76.8 27.5 16 10.6 NE | 44 20.2 NE | 36 77.6 53.7
Max 79.7 50.9 57 27.5 - 36.3 - 81.3 61.6
Avg 69.4 40.8 38 17.9 - 25.0 - - -
Min 61.0 23.5 14 5.3 - 16.1 - 62.4 53.7